Time;durP1;ratioP1;P1;durP2;ratioP2;P2;SDS_P1;SDS_P2;PMS_P1;PMS_P2;Temp;Humidity;BMP_temperature;BMP_pressure;BME280_temperature;BME280_humidity;BME280_pressure;Samples;Min_cycle;Max_cycle;Signal;HPM_P1;HPM_P2
2022/07/30 00:01:28;;;;;;;5.35;1.37;;;;;;;19.33;53.28;100539.05;1746048;81;21250;-79
2022/07/30 00:03:55;;;;;;;4.00;1.60;;;;;;;19.27;53.38;100535.52;1766259;81;21466;-79
2022/07/30 00:06:22;;;;;;;2.75;1.50;;;;;;;19.22;53.55;100535.47;1770043;81;21024;-79
2022/07/30 00:08:49;;;;;;;6.28;1.57;;;;;;;19.20;53.64;100529.41;1749671;81;20966;-79
2022/07/30 00:11:16;;;;;;;10.25;1.52;;;;;;;19.19;53.78;100527.23;1758671;81;21551;-79
2022/07/30 00:13:44;;;;;;;2.47;1.40;;;;;;;19.17;53.81;100519.36;1770060;80;21089;-79
2022/07/30 00:16:11;;;;;;;4.08;1.98;;;;;;;19.14;53.84;100516.08;1753543;81;21068;-79
2022/07/30 00:18:38;;;;;;;4.37;1.45;;;;;;;19.11;53.96;100514.48;1748910;81;21477;-79
2022/07/30 00:21:05;;;;;;;4.83;1.55;;;;;;;19.11;53.98;100503.02;1770150;80;21050;-79
2022/07/30 00:23:33;;;;;;;5.62;1.40;;;;;;;19.09;54.03;100509.78;1770034;81;21074;-79
2022/07/30 00:26:00;;;;;;;2.98;1.35;;;;;;;19.06;53.98;100504.66;1770186;81;21943;-79
2022/07/30 00:28:27;;;;;;;4.90;1.72;;;;;;;19.07;54.12;100503.72;1765579;81;21080;-79
2022/07/30 00:30:56;;;;;;;5.47;1.67;;;;;;;19.06;54.20;100503.81;1739900;81;21072;-79
2022/07/30 00:33:23;;;;;;;7.75;1.52;;;;;;;19.05;54.29;100507.44;1763191;81;21043;-79
2022/07/30 00:35:50;;;;;;;4.62;1.40;;;;;;;19.04;54.41;100501.73;1770374;80;21007;-79
2022/07/30 00:38:17;;;;;;;5.42;1.50;;;;;;;19.02;54.40;100495.22;1748667;80;21299;-79
2022/07/30 00:40:47;;;;;;;3.30;1.30;;;;;;;18.97;54.40;100496.02;1746518;80;21045;-79
2022/07/30 00:43:16;;;;;;;3.87;1.70;;;;;;;18.97;54.58;100490.71;1775987;80;21039;-79
2022/07/30 00:45:44;;;;;;;4.12;1.70;;;;;;;18.99;54.55;100485.30;1787609;80;21043;-79
2022/07/30 00:48:13;;;;;;;6.78;1.60;;;;;;;19.00;54.57;100494.96;1787371;80;21016;-79
2022/07/30 00:50:41;;;;;;;4.05;1.52;;;;;;;19.01;54.58;100497.97;1787489;80;21083;-79
2022/07/30 00:53:08;;;;;;;6.12;1.37;;;;;;;19.02;54.60;100499.69;1777531;80;20986;-80
2022/07/30 00:55:35;;;;;;;9.48;1.67;;;;;;;19.03;54.61;100492.08;1780332;80;21027;-79
2022/07/30 00:58:02;;;;;;;6.78;1.40;;;;;;;19.05;54.67;100482.20;1784607;80;21454;-79
2022/07/30 01:00:30;;;;;;;5.80;1.42;;;;;;;19.04;54.64;100478.70;1777289;80;21558;-79
2022/07/30 01:02:57;;;;;;;3.77;1.50;;;;;;;19.06;54.71;100479.91;1787000;80;21597;-79
2022/07/30 01:05:24;;;;;;;4.37;1.52;;;;;;;19.06;54.67;100482.08;1749603;81;21400;-80
2022/07/30 01:07:51;;;;;;;3.33;1.30;;;;;;;19.07;54.71;100489.59;1734835;81;21076;-79
2022/07/30 01:10:18;;;;;;;4.90;1.57;;;;;;;19.05;54.74;100496.81;1738402;81;21029;-79
2022/07/30 01:12:47;;;;;;;5.08;1.42;;;;;;;19.06;54.90;100502.48;1781109;80;21065;-79
2022/07/30 01:15:15;;;;;;;3.58;1.52;;;;;;;19.05;54.93;100497.66;1760563;80;22009;-79
2022/07/30 01:17:43;;;;;;;3.70;1.70;;;;;;;19.06;54.97;100487.87;1775848;80;21046;-79
2022/07/30 01:20:28;;;;;;;4.92;1.67;;;;;;;19.08;55.13;100488.63;1734307;81;21076;-79
2022/07/30 01:23:01;;;;;;;6.75;1.47;;;;;;;19.07;55.05;100490.92;1747028;81;21536;-79
2022/07/30 01:25:51;;;;;;;3.85;1.57;;;;;;;19.08;55.15;100486.81;1755702;81;21046;-79
2022/07/30 01:28:30;;;;;;;4.60;1.70;;;;;;;19.10;55.18;100485.39;1758757;81;21188;-79
2022/07/30 01:30:58;;;;;;;2.55;1.40;;;;;;;19.13;55.17;100488.67;1753901;81;21052;-79
2022/07/30 01:33:26;;;;;;;4.53;1.30;;;;;;;19.14;55.18;100482.38;1752580;81;21093;-79
2022/07/30 01:35:55;;;;;;;4.17;1.55;;;;;;;19.15;55.16;100480.12;1757720;80;21042;-79
2022/07/30 01:38:24;;;;;;;3.85;1.27;;;;;;;19.17;55.18;100482.64;1741701;81;21338;-80
2022/07/30 01:40:52;;;;;;;;;;;;;;;19.17;55.16;100475.52;1772150;80;21110;-79
2022/07/30 01:43:23;;;;;;;3.25;1.47;;;;;;;19.17;55.17;100467.55;1774913;79;20173;-79
2022/07/30 01:45:52;;;;;;;2.77;1.30;;;;;;;19.17;55.07;100472.86;1741300;81;21571;-79
2022/07/30 01:48:24;;;;;;;4.72;1.65;;;;;;;19.21;55.06;100477.98;1775824;80;20991;-79
2022/07/30 01:50:56;;;;;;;2.65;1.42;;;;;;;19.22;54.98;100481.00;1741030;81;20984;-79
2022/07/30 01:53:30;;;;;;;4.10;1.27;;;;;;;19.23;54.97;100477.37;1759956;80;21194;-79
2022/07/30 01:56:00;;;;;;;3.35;1.40;;;;;;;19.24;54.97;100471.11;1740818;81;21035;-79
2022/07/30 01:58:32;;;;;;;4.12;1.07;;;;;;;19.24;54.97;100469.30;1760301;80;21062;-79
2022/07/30 02:01:02;;;;;;;9.93;1.50;;;;;;;19.26;55.02;100462.08;1740003;81;21058;-79
2022/07/30 02:03:29;;;;;;;3.05;1.60;;;;;;;19.24;54.93;100466.64;1771286;79;21725;-79
2022/07/30 02:06:08;;;;;;;4.55;1.62;;;;;;;19.22;55.05;100461.91;1777578;79;21885;-79
2022/07/30 02:08:47;;;;;;;4.17;1.37;;;;;;;19.21;55.06;100459.38;1744765;81;21019;-79
2022/07/30 02:14:08;;;;;;;4.15;1.50;;;;;;;19.18;55.08;100463.11;1752898;81;21039;-79
2022/07/30 02:16:39;;;;;;;3.00;1.17;;;;;;;19.14;54.97;100457.14;1768331;79;21408;-79
2022/07/30 02:19:13;;;;;;;4.08;1.42;;;;;;;19.15;55.04;100444.73;1783835;79;22005;-79
2022/07/30 02:21:49;;;;;;;5.00;1.20;;;;;;;19.13;55.06;100440.00;1741427;81;21052;-80
2022/07/30 02:24:21;;;;;;;4.45;1.35;;;;;;;19.11;55.01;100437.44;1774609;79;21534;-79
2022/07/30 02:26:52;;;;;;;5.80;1.22;;;;;;;19.10;55.00;100443.72;1741727;81;21043;-79
2022/07/30 02:29:22;;;;;;;4.35;1.60;;;;;;;19.09;55.06;100441.16;1787545;79;21006;-80
2022/07/30 02:31:50;;;;;;;;;;;;;;;19.10;55.01;100444.21;1776267;79;21185;-79
2022/07/30 02:34:21;;;;;;;3.72;1.50;;;;;;;19.09;55.16;100441.16;1789747;79;20140;-79
2022/07/30 02:36:50;;;;;;;2.70;1.05;;;;;;;19.09;55.03;100445.14;1767822;80;21030;-79
2022/07/30 02:39:20;;;;;;;3.20;1.63;;;;;;;19.07;54.96;100441.78;1745750;81;20987;-79
2022/07/30 02:41:49;;;;;;;5.15;1.10;;;;;;;19.09;54.94;100433.19;1770731;79;21334;-79
2022/07/30 02:44:19;;;;;;;1.90;1.30;;;;;;;19.08;54.92;100425.71;1726687;81;21137;-79
2022/07/30 02:46:48;;;;;;;3.67;1.30;;;;;;;19.08;54.87;100423.54;1767012;80;21081;-79
2022/07/30 02:49:34;;;;;;;2.77;1.22;;;;;;;19.07;54.80;100421.37;1763279;80;21476;-79
2022/07/30 02:52:07;;;;;;;4.00;1.35;;;;;;;19.05;54.76;100417.97;1750671;81;21100;-79
2022/07/30 02:54:38;;;;;;;4.08;1.20;;;;;;;19.05;54.74;100416.64;1748241;81;21027;-79
2022/07/30 02:57:06;;;;;;;2.87;1.15;;;;;;;19.06;54.76;100417.48;1763632;80;21157;-79
2022/07/30 02:59:37;;;;;;;5.80;1.70;;;;;;;19.06;54.82;100414.34;1747185;80;21091;-79
2022/07/30 03:02:08;;;;;;;4.30;1.47;;;;;;;19.05;54.76;100419.30;1763816;80;21102;-79
2022/07/30 03:04:37;;;;;;;4.15;1.10;;;;;;;19.05;54.77;100416.64;1766447;80;21583;-79
2022/07/30 03:07:07;;;;;;;3.17;1.10;;;;;;;19.04;54.67;100418.94;1746836;81;21275;-80
2022/07/30 03:09:37;;;;;;;3.87;1.20;;;;;;;19.03;54.64;100415.89;1760584;80;21123;-79
2022/07/30 03:12:06;;;;;;;4.22;1.30;;;;;;;19.03;54.71;100416.37;1752717;80;21526;-79
2022/07/30 03:14:34;;;;;;;3.60;1.50;;;;;;;19.03;54.63;100419.03;1755039;81;24076;-79
2022/07/30 03:17:05;;;;;;;4.97;1.42;;;;;;;19.01;54.56;100415.63;1758156;80;21050;-79
2022/07/30 03:19:36;;;;;;;2.67;1.30;;;;;;;19.01;54.58;100411.64;1763452;81;21473;-79
2022/07/30 03:22:05;;;;;;;4.83;1.35;;;;;;;19.02;54.57;100420.00;1759993;80;21280;-79
2022/07/30 03:24:35;;;;;;;3.52;1.35;;;;;;;19.01;54.54;100411.64;1749310;81;21044;-80
2022/07/30 03:27:03;;;;;;;2.45;1.15;;;;;;;19.01;54.58;100408.98;1754514;80;20947;-79
2022/07/30 03:29:31;;;;;;;2.15;1.05;;;;;;;19.02;54.56;100414.69;1748434;80;21064;-79
2022/07/30 03:31:59;;;;;;;3.08;1.22;;;;;;;19.02;54.57;100412.88;1756407;80;21025;-79
2022/07/30 03:34:26;;;;;;;3.70;1.60;;;;;;;19.01;54.55;100411.19;1760607;80;21292;-79
2022/07/30 03:36:54;;;;;;;3.33;1.70;;;;;;;19.00;54.46;100408.14;1760836;81;21038;-79
2022/07/30 03:39:28;;;;;;;6.85;1.30;;;;;;;19.00;54.44;100409.47;1727994;80;20881;-79
2022/07/30 03:41:56;;;;;;;4.28;1.47;;;;;;;18.99;54.46;100415.76;1763055;80;21006;-79
2022/07/30 03:44:23;;;;;;;4.12;1.32;;;;;;;18.99;54.40;100415.76;1758786;81;21044;-79
2022/07/30 03:46:54;;;;;;;8.23;1.22;;;;;;;19.00;54.43;100420.58;1764367;81;21076;-79
2022/07/30 03:49:23;;;;;;;4.42;2.00;;;;;;;19.00;54.36;100421.91;1768323;81;20938;-79
2022/07/30 03:51:53;;;;;;;3.10;1.20;;;;;;;18.99;54.39;100418.41;1768355;81;21992;-79
2022/07/30 03:54:21;;;;;;;1.42;1.10;;;;;;;19.00;54.42;100416.59;1768444;81;21090;-79
2022/07/30 03:57:08;;;;;;;2.72;1.20;;;;;;;19.00;54.47;100415.27;1762564;81;21051;-79
2022/07/30 03:59:38;;;;;;;2.45;1.00;;;;;;;19.01;54.50;100416.95;1767301;81;21082;-79
2022/07/30 04:02:05;;;;;;;3.08;1.20;;;;;;;19.01;54.48;100411.64;1766369;81;21043;-79
2022/07/30 04:04:46;;;;;;;2.98;1.20;;;;;;;19.01;54.49;100412.52;1713652;81;22079;-79
2022/07/30 04:07:14;;;;;;;4.65;1.10;;;;;;;19.03;54.48;100416.37;1768486;81;20995;-80
2022/07/30 04:09:41;;;;;;;3.08;1.17;;;;;;;19.02;54.49;100417.34;1768745;81;21031;-80
2022/07/30 04:12:12;;;;;;;2.42;1.10;;;;;;;19.03;54.46;100413.23;1779449;80;21862;-80
2022/07/30 04:14:41;;;;;;;3.73;1.00;;;;;;;19.04;54.49;100412.75;1782746;80;21013;-80
2022/07/30 04:17:17;;;;;;;2.35;1.10;;;;;;;19.04;54.48;100412.75;1771674;80;21385;-79
2022/07/30 04:19:49;;;;;;;2.25;1.15;;;;;;;19.05;54.57;100414.47;1781975;80;21665;-79
2022/07/30 04:22:22;;;;;;;3.20;1.12;;;;;;;19.04;54.63;100412.30;1782267;80;21045;-79
2022/07/30 04:24:51;;;;;;;2.87;1.10;;;;;;;19.03;54.58;100413.23;1782545;80;21118;-79
2022/07/30 04:27:18;;;;;;;6.10;1.40;;;;;;;19.05;54.67;100409.16;1782914;80;20986;-79
2022/07/30 04:29:46;;;;;;;1.32;1.00;;;;;;;19.03;54.68;100407.92;1782475;80;21053;-79
2022/07/30 04:32:13;;;;;;;2.55;1.30;;;;;;;19.01;54.72;100404.55;1780705;80;21049;-83
2022/07/30 04:34:51;;;;;;;2.10;1.20;;;;;;;19.01;54.72;100412.52;1776127;80;21033;-83
2022/07/30 04:37:24;;;;;;;12.88;1.40;;;;;;;19.02;55.22;100413.36;1777097;80;21148;-82
2022/07/30 04:39:56;;;;;;;4.33;1.40;;;;;;;18.98;55.81;100410.05;1779422;80;21033;-83
2022/07/30 04:42:27;;;;;;;3.27;1.60;;;;;;;18.92;56.39;100415.33;1773734;80;21010;-84
2022/07/30 04:45:08;;;;;;;4.53;1.80;;;;;;;18.86;57.09;100410.95;1769324;80;20998;-82
2022/07/30 04:47:40;;;;;;;6.33;2.30;;;;;;;18.77;58.07;100409.80;1758921;80;21022;-83
2022/07/30 04:50:26;;;;;;;4.00;1.80;;;;;;;18.64;59.06;100411.11;1769340;81;21177;-83
2022/07/30 04:52:55;;;;;;;5.30;1.90;;;;;;;18.48;60.08;100406.50;1739851;81;21584;-84
2022/07/30 04:55:32;;;;;;;3.67;1.77;;;;;;;18.30;60.76;100405.14;1763037;80;21052;-84
2022/07/30 04:58:00;;;;;;;4.20;1.72;;;;;;;18.13;61.21;100407.16;1769478;80;21091;-83
2022/07/30 05:00:29;;;;;;;3.37;1.50;;;;;;;17.99;62.09;100409.42;1770393;80;21048;-83
2022/07/30 05:02:57;;;;;;;4.15;1.40;;;;;;;17.89;62.96;100408.33;1771848;80;21171;-84
2022/07/30 05:05:26;;;;;;;7.35;1.45;;;;;;;17.79;63.61;100410.77;1756535;81;21063;-84
2022/07/30 05:07:54;;;;;;;4.03;1.50;;;;;;;17.73;64.19;100408.95;1756618;80;21340;-84
2022/07/30 05:10:21;;;;;;;5.92;1.45;;;;;;;17.68;64.89;100407.08;1762785;81;21036;-81
2022/07/30 05:12:48;;;;;;;4.05;1.60;;;;;;;17.63;65.39;100404.75;1731171;81;21537;-85
2022/07/30 05:15:17;;;;;;;3.02;1.92;;;;;;;17.60;65.79;100415.56;1754152;81;21121;-85
2022/07/30 05:17:44;;;;;;;3.22;1.40;;;;;;;17.56;66.14;100417.54;1768667;79;21047;-85
2022/07/30 05:20:13;;;;;;;4.53;1.90;;;;;;;17.55;66.65;100418.98;1772427;80;21056;-84
2022/07/30 05:22:54;;;;;;;5.97;1.62;;;;;;;17.51;67.00;100422.77;1782677;80;21255;-84
2022/07/30 05:25:21;;;;;;;3.85;1.40;;;;;;;17.49;67.41;100423.37;1782366;79;21749;-81
2022/07/30 05:27:50;;;;;;;3.87;1.47;;;;;;;17.44;67.52;100415.70;1754998;81;21147;-81
2022/07/30 05:30:17;;;;;;;6.80;2.02;;;;;;;17.39;68.20;100421.78;1763538;81;21040;-83
2022/07/30 05:32:46;;;;;;;3.27;1.50;;;;;;;17.35;68.39;100422.46;1752748;80;21066;-81
2022/07/30 05:35:13;;;;;;;5.80;1.87;;;;;;;17.32;68.72;100427.09;1755775;81;21040;-80
2022/07/30 05:37:40;;;;;;;5.42;1.62;;;;;;;17.28;69.06;100421.62;1766733;80;21387;-81
2022/07/30 05:40:08;;;;;;;2.52;1.82;;;;;;;17.26;69.34;100423.52;1753877;81;21132;-80
2022/07/30 05:42:37;;;;;;;2.98;1.95;;;;;;;17.26;69.91;100424.84;1760710;80;20997;-81
2022/07/30 05:45:06;;;;;;;4.05;2.20;;;;;;;17.26;70.07;100431.47;1761111;81;22264;-82
2022/07/30 05:47:34;;;;;;;5.75;1.92;;;;;;;17.25;70.33;100437.72;1767333;80;21540;-82
2022/07/30 05:50:01;;;;;;;4.35;2.05;;;;;;;17.24;70.56;100432.91;1758018;81;21058;-83
2022/07/30 05:52:28;;;;;;;3.72;2.02;;;;;;;17.26;71.23;100435.44;1776682;80;21289;-83
2022/07/30 05:54:57;;;;;;;3.58;1.90;;;;;;;17.26;71.23;100435.44;1752839;81;21064;-82
2022/07/30 05:57:24;;;;;;;4.80;1.92;;;;;;;17.28;71.46;100442.82;1759406;81;21039;-82
2022/07/30 05:59:51;;;;;;;3.22;1.85;;;;;;;17.31;71.64;100442.62;1769457;80;21544;-82
2022/07/30 06:02:26;;;;;;;4.30;2.00;;;;;;;17.34;71.88;100449.04;1760035;80;21358;-82
2022/07/30 06:04:53;;;;;;;2.77;1.82;;;;;;;17.36;72.25;100445.83;1753814;81;21259;-82
2022/07/30 06:07:20;;;;;;;3.33;1.98;;;;;;;17.36;72.25;100445.83;1786543;80;21047;-82
2022/07/30 06:09:48;;;;;;;1.98;1.65;;;;;;;17.39;72.44;100446.95;1761077;79;21091;-81
2022/07/30 06:12:15;;;;;;;2.42;1.70;;;;;;;17.41;72.51;100446.38;1774854;79;21433;-81
2022/07/30 06:14:42;;;;;;;3.90;2.00;;;;;;;17.43;72.72;100443.17;1761973;81;21048;-80
2022/07/30 06:17:11;;;;;;;4.05;2.02;;;;;;;17.46;72.86;100448.72;1760719;81;21142;-81
2022/07/30 06:19:57;;;;;;;4.00;1.82;;;;;;;17.47;72.97;100451.28;1722568;81;21532;-80
2022/07/30 06:22:25;;;;;;;4.37;1.80;;;;;;;17.46;72.92;100450.91;1761374;81;21501;-80
2022/07/30 06:24:52;;;;;;;3.20;1.85;;;;;;;17.53;73.24;100457.50;1733280;81;21047;-81
2022/07/30 06:27:21;;;;;;;1.98;1.67;;;;;;;17.53;73.24;100457.50;1760442;81;21095;-79
2022/07/30 06:29:48;;;;;;;2.47;1.80;;;;;;;17.54;73.33;100455.24;1752518;81;21909;-80
2022/07/30 06:32:16;;;;;;;1.90;1.45;;;;;;;17.60;73.45;100457.97;1773158;80;21024;-82
2022/07/30 06:34:43;;;;;;;2.42;1.70;;;;;;;17.64;73.28;100460.78;1776843;80;21003;-79
2022/07/30 06:37:11;;;;;;;7.70;2.00;;;;;;;17.71;73.47;100462.53;1766772;80;21026;-82
2022/07/30 06:39:39;;;;;;;3.60;1.70;;;;;;;17.70;73.26;100465.67;1765981;80;21029;-79
2022/07/30 06:42:08;;;;;;;2.40;1.57;;;;;;;17.72;73.15;100461.13;1730622;80;21199;-79
2022/07/30 06:44:53;;;;;;;5.15;1.70;;;;;;;17.73;72.80;100465.46;1777441;79;21045;-78
2022/07/30 06:47:25;;;;;;;2.62;1.70;;;;;;;17.72;72.56;100462.93;1763401;80;21042;-78
2022/07/30 06:49:52;;;;;;;2.92;2.10;;;;;;;17.70;72.84;100468.32;1738744;81;21038;-78
2022/07/30 06:52:19;;;;;;;5.08;2.20;;;;;;;17.70;73.06;100460.37;1775128;79;21497;-78
2022/07/30 06:54:48;;;;;;;3.55;2.27;;;;;;;17.69;73.00;100464.46;1737332;81;21297;-78
2022/07/30 06:57:17;;;;;;;3.20;2.10;;;;;;;17.68;73.07;100461.41;1766400;79;21054;-78
2022/07/30 06:59:47;;;;;;;2.40;2.02;;;;;;;17.67;73.08;100461.05;1770941;80;21563;-79
2022/07/30 07:02:19;;;;;;;2.50;1.90;;;;;;;17.63;73.05;100460.89;1748945;81;21056;-78
2022/07/30 07:05:07;;;;;;;3.50;1.92;;;;;;;17.60;73.36;100457.48;1747020;80;21047;-80
2022/07/30 07:07:35;;;;;;;3.08;2.08;;;;;;;17.59;73.31;100461.06;1772962;79;21114;-79
2022/07/30 07:10:07;;;;;;;3.75;2.27;;;;;;;17.59;73.39;100461.55;1762625;79;21097;-79
2022/07/30 07:12:37;;;;;;;7.17;2.10;;;;;;;17.60;73.67;100457.48;1699542;81;21030;-79
2022/07/30 07:15:05;;;;;;;3.12;2.10;;;;;;;17.64;73.82;100461.26;1760863;80;21035;-79
2022/07/30 07:17:33;;;;;;;4.10;2.10;;;;;;;17.68;73.95;100460.97;1760825;80;21049;-78
2022/07/30 07:20:06;;;;;;;3.25;2.20;;;;;;;17.73;74.07;100449.56;1742694;80;21558;-78
2022/07/30 07:22:35;;;;;;;;;;;;;;;17.78;74.12;100455.89;1743894;80;21049;-77
2022/07/30 07:25:03;;;;;;;4.35;2.52;;;;;;;17.82;74.62;100446.35;1751954;81;20117;-78
2022/07/30 07:27:32;;;;;;;3.77;2.20;;;;;;;17.87;74.46;100446.02;1756917;80;20997;-81
2022/07/30 07:30:00;;;;;;;7.65;3.65;;;;;;;17.90;74.58;100446.30;1763098;80;21046;-77
2022/07/30 07:32:28;;;;;;;6.95;4.85;;;;;;;17.93;74.46;100436.80;1786793;79;21961;-78
2022/07/30 07:34:56;;;;;;;6.15;4.10;;;;;;;17.95;74.34;100437.08;1738637;81;37795;-78
2022/07/30 07:37:23;;;;;;;6.87;3.17;;;;;;;17.99;74.40;100431.96;1770174;79;21058;-77
2022/07/30 07:39:51;;;;;;;3.98;2.80;;;;;;;18.00;74.33;100432.32;1779272;79;21062;-78
2022/07/30 07:42:19;;;;;;;4.70;2.80;;;;;;;18.03;74.43;100434.77;1743430;81;21091;-77
2022/07/30 07:44:47;;;;;;;5.47;3.00;;;;;;;18.05;74.58;100436.00;1765132;80;21085;-84
2022/07/30 07:47:15;;;;;;;4.90;3.72;;;;;;;18.09;74.66;100443.27;1767328;80;21021;-83
2022/07/30 07:49:43;;;;;;;4.28;3.00;;;;;;;18.14;74.83;100435.37;1746269;80;21058;-82
2022/07/30 07:52:11;;;;;;;7.33;3.45;;;;;;;18.19;75.00;100439.89;1731454;81;21056;-82
2022/07/30 07:54:38;;;;;;;6.67;3.30;;;;;;;18.25;75.09;100443.44;1731833;81;21006;-82
2022/07/30 07:57:06;;;;;;;5.62;3.25;;;;;;;18.31;75.06;100444.82;1732050;81;21140;-84
2022/07/30 07:59:38;;;;;;;6.00;3.25;;;;;;;18.35;75.03;100443.67;1745048;81;20993;-83
2022/07/30 08:02:06;;;;;;;5.33;3.00;;;;;;;18.39;75.01;100442.97;1746939;81;21086;-82
2022/07/30 08:04:41;;;;;;;5.53;2.75;;;;;;;18.42;75.01;100438.30;1754256;81;21051;-83
2022/07/30 08:07:13;;;;;;;11.93;3.92;;;;;;;18.43;74.85;100433.37;1753959;81;21051;-82
2022/07/30 08:09:49;;;;;;;4.12;3.02;;;;;;;18.41;74.57;100433.95;1779828;80;21972;-83
2022/07/30 08:12:21;;;;;;;9.20;3.08;;;;;;;18.40;74.55;100439.35;1738261;81;21055;-84
2022/07/30 08:15:11;;;;;;;5.97;3.42;;;;;;;18.38;74.81;100432.84;1775629;80;21081;-83
2022/07/30 08:17:55;;;;;;;5.25;3.15;;;;;;;18.40;74.72;100442.88;1760729;80;21045;-84
2022/07/30 08:20:24;;;;;;;4.20;2.60;;;;;;;18.39;74.59;100443.81;1783122;80;21127;-85
2022/07/30 08:22:51;;;;;;;3.47;2.83;;;;;;;18.36;74.79;100438.72;1741603;81;21582;-81
2022/07/30 08:25:18;;;;;;;5.67;3.08;;;;;;;18.38;75.19;100440.80;1742840;81;21036;-83
2022/07/30 08:27:46;;;;;;;5.20;3.10;;;;;;;18.40;75.33;100442.01;1782458;80;21006;-85
2022/07/30 08:30:13;;;;;;;4.23;2.90;;;;;;;18.39;75.12;100441.16;1751312;80;21059;-85
2022/07/30 08:32:41;;;;;;;7.10;2.95;;;;;;;18.37;75.18;100437.76;1783926;80;21070;-83
2022/07/30 08:35:09;;;;;;;4.33;3.10;;;;;;;18.36;75.32;100437.40;1769891;80;21106;-83
2022/07/30 08:37:39;;;;;;;6.17;2.95;;;;;;;18.35;75.15;100441.02;1737384;81;20954;-81
2022/07/30 08:40:08;;;;;;;5.20;3.25;;;;;;;18.33;75.31;100449.55;1781116;80;21116;-84
2022/07/30 08:42:38;;;;;;;6.50;2.95;;;;;;;18.30;75.26;100449.77;1783375;80;21126;-82
2022/07/30 08:45:10;;;;;;;5.67;3.30;;;;;;;18.25;75.34;100450.08;1731372;81;21056;-82
2022/07/30 08:47:41;;;;;;;6.47;3.22;;;;;;;18.23;75.45;100449.80;1750570;81;21087;-85
2022/07/30 08:50:13;;;;;;;3.85;2.98;;;;;;;18.18;75.48;100457.22;1759349;80;21508;-83
2022/07/30 08:52:42;;;;;;;8.78;3.62;;;;;;;18.17;75.63;100460.84;1758146;80;20997;-84
2022/07/30 08:55:09;;;;;;;5.22;3.58;;;;;;;18.15;75.82;100456.11;1775928;80;20990;-80
2022/07/30 08:57:39;;;;;;;6.33;3.80;;;;;;;18.12;76.02;100453.66;1754249;81;21288;-83
2022/07/30 09:00:08;;;;;;;6.92;3.70;;;;;;;18.10;76.02;100453.78;1782011;80;21951;-83
2022/07/30 09:02:35;;;;;;;4.60;3.52;;;;;;;18.06;76.15;100453.60;1782577;80;21049;-83
2022/07/30 09:05:05;;;;;;;7.17;3.95;;;;;;;18.02;76.27;100453.45;1749589;81;21553;-83
2022/07/30 09:07:33;;;;;;;5.20;3.72;;;;;;;17.98;76.44;100454.11;1729976;81;20989;-82
2022/07/30 09:10:06;;;;;;;4.40;3.47;;;;;;;17.95;76.34;100454.31;1754395;81;21525;-84
2022/07/30 09:12:43;;;;;;;6.30;3.72;;;;;;;17.93;76.65;100451.39;1782270;80;21087;-84
2022/07/30 09:15:18;;;;;;;4.15;3.20;;;;;;;17.93;76.79;100458.90;1761921;80;21066;-83
2022/07/30 09:18:01;;;;;;;4.78;3.60;;;;;;;17.93;76.96;100461.55;1731308;81;21053;-84
2022/07/30 09:20:34;;;;;;;5.90;3.77;;;;;;;17.92;77.13;100466.94;1736742;81;21023;-83
2022/07/30 09:23:06;;;;;;;5.60;4.15;;;;;;;17.89;77.19;100471.97;1769737;80;21083;-84
2022/07/30 09:25:46;;;;;;;6.75;4.10;;;;;;;17.87;77.44;100468.56;1750574;81;21131;-85
2022/07/30 09:28:14;;;;;;;5.05;3.92;;;;;;;17.84;77.49;100467.44;1697008;81;26419;-84
2022/07/30 09:31:00;;;;;;;6.80;4.05;;;;;;;17.83;77.73;100473.70;1786845;80;21139;-84
2022/07/30 09:33:46;;;;;;;4.37;3.50;;;;;;;17.79;77.80;100465.56;1780140;80;21070;-84
2022/07/30 09:36:32;;;;;;;5.58;3.58;;;;;;;17.77;78.08;100465.66;1747625;81;20993;-87
2022/07/30 09:39:38;;;;;;;5.35;3.80;;;;;;;17.76;78.20;100459.11;1752216;81;21123;-88
2022/07/30 09:42:30;;;;;;;7.37;4.25;;;;;;;17.72;78.37;100455.82;1758595;80;21038;-88
2022/07/30 09:45:14;;;;;;;5.08;3.60;;;;;;;17.68;78.47;100456.99;1739080;81;21101;-88
2022/07/30 09:47:49;;;;;;;4.83;4.20;;;;;;;17.64;78.77;100455.48;1762322;80;21049;-91
2022/07/30 09:50:22;;;;;;;5.37;4.20;;;;;;;17.61;78.98;100453.87;1785688;80;21085;-86
2022/07/30 09:52:50;;;;;;;4.40;3.67;;;;;;;17.57;79.13;100456.36;1765564;80;21112;-87
2022/07/30 09:58:13;;;;;;;8.13;4.30;;;;;;;17.56;79.46;100456.45;1765689;80;21042;-90
2022/07/30 10:00:42;;;;;;;9.30;5.03;;;;;;;17.55;79.73;100454.28;1708522;82;21023;-90
2022/07/30 10:03:24;;;;;;;9.00;4.70;;;;;;;17.56;79.83;100456.45;1756173;81;21035;-87
2022/07/30 10:06:15;;;;;;;6.53;4.78;;;;;;;17.56;79.96;100457.77;1782079;80;22129;-86
2022/07/30 10:08:52;;;;;;;5.42;4.70;;;;;;;17.59;80.56;100458.41;1797963;79;21019;-82
2022/07/30 10:11:22;;;;;;;5.53;4.35;;;;;;;17.63;80.64;100460.41;1788331;80;21006;-82
2022/07/30 10:13:55;;;;;;;5.92;4.92;;;;;;;17.65;80.55;100458.97;1768022;78;20973;-82
2022/07/30 10:16:25;;;;;;;5.10;4.55;;;;;;;17.60;80.51;100454.84;1764938;80;21109;-83
2022/07/30 10:18:56;;;;;;;6.30;4.10;;;;;;;17.58;80.73;100458.05;1775854;80;22003;-81
2022/07/30 10:21:36;;;;;;;5.78;4.17;;;;;;;17.55;80.60;100451.63;1718208;80;20995;-82
2022/07/30 10:24:29;;;;;;;6.90;4.47;;;;;;;17.49;80.72;100458.66;1748576;81;21497;-82
2022/07/30 10:27:12;;;;;;;5.67;4.30;;;;;;;17.47;80.83;100462.36;1702979;81;20987;-81
2022/07/30 10:29:42;;;;;;;5.72;4.90;;;;;;;17.46;81.15;100464.61;1755142;80;20996;-82
2022/07/30 10:32:10;;;;;;;7.55;4.22;;;;;;;17.45;81.39;100461.59;1761951;80;21157;-82
2022/07/30 10:34:38;;;;;;;6.67;4.53;;;;;;;17.45;81.36;100464.25;1756634;80;20989;-82
2022/07/30 10:37:07;;;;;;;5.20;4.28;;;;;;;17.43;81.57;100470.98;1757985;80;21077;-82
2022/07/30 10:39:45;;;;;;;7.10;4.47;;;;;;;17.41;81.75;100468.91;1757935;81;21517;-85
2022/07/30 10:42:52;;;;;;;9.20;5.03;;;;;;;17.39;81.53;100461.04;1753902;80;21026;-84
2022/07/30 10:45:51;;;;;;;5.97;4.58;;;;;;;17.39;81.80;100460.20;1787618;79;21123;-86
2022/07/30 10:48:19;;;;;;;5.15;4.50;;;;;;;17.37;82.04;100463.41;1790154;80;21078;-83
2022/07/30 10:50:56;;;;;;;5.28;4.75;;;;;;;17.37;82.21;100463.41;1758576;81;21046;-82
2022/07/30 10:53:47;;;;;;;5.60;4.95;;;;;;;17.38;82.54;100458.03;1754451;80;21011;-87
2022/07/30 10:56:31;;;;;;;5.30;4.50;;;;;;;17.36;82.25;100454.62;1748053;78;21717;-91
2022/07/30 10:59:17;;;;;;;6.97;4.80;;;;;;;17.30;82.33;100454.17;1755011;78;22068;-84
2022/07/30 11:01:52;;;;;;;5.75;4.42;;;;;;;17.21;82.79;100445.47;1761911;80;21242;-84
2022/07/30 11:04:25;;;;;;;7.00;4.90;;;;;;;17.15;83.24;100444.94;1770063;78;21043;-83
2022/07/30 11:07:17;;;;;;;9.25;5.03;;;;;;;17.13;83.63;100449.48;1768309;78;21560;-84
2022/07/30 11:09:45;;;;;;;7.47;4.97;;;;;;;17.12;83.93;100445.11;1743189;80;21082;-89
2022/07/30 11:12:12;;;;;;;5.65;5.10;;;;;;;17.10;84.43;100444.37;1746204;80;21139;-85
2022/07/30 11:14:53;;;;;;;6.35;5.67;;;;;;;17.06;84.53;100442.86;1745813;82;21047;-81
2022/07/30 11:17:20;;;;;;;7.62;5.53;;;;;;;17.02;84.87;100444.02;1746548;82;21036;-84
2022/07/30 11:20:07;;;;;;;6.97;5.15;;;;;;;16.97;85.04;100446.58;1746363;82;21132;-86
2022/07/30 11:22:39;;;;;;;7.33;5.42;;;;;;;16.92;85.36;100443.73;1746589;80;21071;-83
2022/07/30 11:25:09;;;;;;;7.20;5.40;;;;;;;16.90;85.81;100442.12;1746400;82;21185;-82
2022/07/30 11:27:41;;;;;;;5.55;4.90;;;;;;;16.88;86.15;100440.91;1743490;81;21608;-83
2022/07/30 11:30:19;;;;;;;6.67;5.17;;;;;;;16.85;86.49;100438.45;1746345;80;21115;-82
2022/07/30 11:32:49;;;;;;;5.42;4.87;;;;;;;16.80;86.70;100436.56;1746599;82;21020;-81
2022/07/30 11:35:26;;;;;;;5.70;5.17;;;;;;;16.80;86.70;100436.56;1746584;82;21429;-93
2022/07/30 11:38:18;;;;;;;8.40;5.50;;;;;;;16.80;87.09;100431.27;1746269;82;21117;-83
2022/07/30 11:40:53;;;;;;;10.32;5.65;;;;;;;16.81;87.36;100428.14;1746261;80;21102;-86
2022/07/30 11:43:32;;;;;;;7.28;5.83;;;;;;;16.79;87.60;100426.91;1746567;82;21545;-81
2022/07/30 11:46:22;;;;;;;8.43;6.08;;;;;;;16.77;87.90;100421.36;1749418;81;21070;-81
2022/07/30 11:49:00;;;;;;;8.58;6.30;;;;;;;16.78;87.93;100425.22;1769309;81;21240;-82
2022/07/30 11:51:28;;;;;;;8.00;6.37;;;;;;;16.79;88.55;100420.28;1748470;78;21070;-84
2022/07/30 11:54:09;;;;;;;10.25;6.50;;;;;;;16.79;88.55;100420.28;1761358;81;21117;-81